Accueil
METAR-TAF:

METAR-TAF

Aéroports :

Cassel, Allemagne

latitude: 51-24N, longitude: 009-23E, altitude: 277 m

Observation

Le bulletin a été fait il y a 38 minutes, à 22:20 UTC
Vent 10 kt de sud/sud-est
Température 1°C
Humidité 86%
Pression 1002 hPa
Visibilité 10 km ou plus
Nuages fragmentés à une hauteur de 1300 ft

METAR: EDVK 032220Z 16010KT 9999 BKN013 01/M01 Q1002

Heure: 23:58 (22:58 UTC)

Prévision

Le bulletin a été fait il y a 5 heures et 58 minutes, à 17:00 UTC
Prévision valable du 03 à 18 UTC au 04 à 03 UTC
Vent 12 kt de sud
Visibilité 10 km ou plus
Nuages épars à une hauteur de 2500 ft
Probabilité 30% :
Temporairement
du 03 à 18 UTC au 03 à 23 UTC
Vent 15 kt de sud avec des rafales jusqu'à 25 kt
Visibilité: 4000 m
Nuages fragmentés à une hauteur de 1200 ft
neige faible

TAF: EDVK 031700Z 0318/0403 18012KT 9999 SCT025 PROB30 TEMPO 0318/0323 19015G25KT 4000 -SN BKN012

Observations et prévisions météorologiques de plus de 4000 aéroports (messages METAR et TAF).

Les stations disponibles sont représentées par des disques jaunes et rouges sur la carte.

Passer la souris dessus pour voir le nom de la station.

Cliquer dessus pour voir les observations et prévisions météorologiques.

Pour changer de carte: cliquez sur les boutons verts avec une croix noire pour zoomer, sur le bouton vert avec un tiret pour effectuer un zoom arrière, ou sur les flèches vertes pour les cartes adjacentes.


METAR-TAF: